Metar z połowy godziny Komunikat METAR ze strony awiacja.imgw.pl Metar G30 EPKS METAR EPKS 171730Z 14005KT CAVOK 23/10 Q1011 RMK 227 043 7/7=